Latest Weather Observations for Adele Island

IDW60801

Issued at 10:03 pm WST Monday 29 November 2021 (issued every 10 minutes, with the page automatically refreshed every 10 minutes)

About weather observations | Map of weather stations | Latest weather observations for WA | Other Formats
Station Details ID: 200735 Name: ADELE ISLAND Lat: -15.51 Lon: 123.16 Height: 4.6 m
Data from the previous 72 hours. | See also: Recent months at Adele Island
Date/Time
WST
Temp
°C
App
Temp
°C
Dew
Point
°C
Rel
Hum
%
Delta-T
°C
Wind Press
QNH
hPa
Press
MSL
hPa
Rain since
9am
mm
Dir  Spd
km/h
Gust
km/h
Spd
kts
Gust
kts
29/10:00pm 29.7 - - - - WNW 19 24 10 13 1009.2 1009.1 -
29/09:30pm 29.9 - - - - W 20 24 11 13 1009.3 1009.2 -
29/09:17pm 29.9 - - - - WNW 19 - 10 - - 1009.2 -
29/09:00pm 30.1 - - - - WNW 20 24 11 13 1009.2 1009.1 -
29/08:30pm 29.9 - - - - WNW 17 20 9 11 1009.3 1009.2 -
29/08:17pm 29.9 - - - - WNW 19 - 10 - - 1009.1 -
29/08:00pm 29.9 - - - - WNW 15 19 8 10 1008.9 1008.8 -
29/07:30pm 29.9 - - - - WNW 13 17 7 9 1008.8 1008.7 -
29/07:17pm 30.1 - - - - WNW 15 - 8 - - 1008.7 -
29/07:00pm 29.9 - - - - WNW 15 19 8 10 1008.6 1008.5 -
29/06:30pm 30.0 - - - - WNW 15 19 8 10 1008.0 1007.9 -
29/06:17pm 30.1 - - - - W 15 - 8 - - 1007.8 -
29/06:00pm 30.1 - - - - WNW 13 17 7 9 1007.6 1007.5 -
29/05:30pm 30.3 - - - - WNW 13 17 7 9 1007.2 1007.1 -
29/05:17pm 30.4 - - - - WNW 13 - 7 - - 1007.0 -
29/05:00pm 30.6 - - - - W 13 15 7 8 1007.1 1007.0 -
29/04:30pm 30.9 - - - - WSW 13 15 7 8 1007.0 1006.9 -
29/04:17pm 31.0 - - - - WSW 13 - 7 - - 1006.9 -
29/04:00pm 30.7 - - - - SW 13 17 7 9 1007.1 1007.0 -
29/03:30pm 31.3 - - - - WSW 7 15 4 8 1007.2 1007.1 -
29/03:17pm 31.9 - - - - W 11 - 6 - - 1007.1 -
29/03:00pm 31.6 - - - - W 11 17 6 9 1007.4 1007.3 -
29/02:30pm 31.4 - - - - N 9 13 5 7 1007.6 1007.5 -
29/02:17pm 31.4 - - - - SE 11 - 6 - - 1007.6 -
29/02:00pm 31.0 - - - - E 11 17 6 9 1008.0 1007.9 -
29/01:30pm 32.1 - - - - E 13 17 7 9 1008.3 1008.2 -
29/01:17pm 31.2 - - - - E 13 - 7 - - 1008.3 -
29/01:00pm 31.2 - - - - ESE 15 20 8 11 1008.5 1008.4 -
29/12:30pm 30.7 - - - - ESE 15 20 8 11 1008.9 1008.8 -
29/12:17pm 31.9 - - - - E 15 - 8 - - 1008.8 -
29/12:00pm 31.8 - - - - E 15 20 8 11 1009.1 1009.0 -
29/11:30am 31.2 - - - - E 15 20 8 11 1009.3 1009.2 -
29/11:17am 31.1 - - - - E 15 - 8 - - 1009.4 -
29/11:00am 31.9 - - - - E 17 20 9 11 1009.7 1009.6 -
29/10:30am 30.8 - - - - ESE 17 22 9 12 1010.2 1010.1 -
29/10:17am 30.9 - - - - E 19 - 10 - - 1010.0 -
29/10:00am 30.9 - - - - SE 17 22 9 12 1010.4 1010.3 -
29/09:30am 31.1 - - - - SE 17 22 9 12 1010.7 1010.6 -
29/09:17am 31.5 - - - - SE 19 - 10 - - 1010.7 -
29/09:00am 30.8 - - - - ESE 19 24 10 13 1010.8 1010.7 -
29/08:30am 30.0 - - - - SE 19 24 10 13 1010.7 1010.6 -
29/08:17am 30.0 - - - - SE 19 - 10 - - 1010.6 -
29/08:00am 30.8 - - - - SE 17 22 9 12 1010.5 1010.4 -
29/07:30am 30.4 - - - - SSE 13 17 7 9 1010.2 1010.1 -
29/07:17am 29.8 - - - - SE 13 - 7 - - 1010.0 -
29/07:00am 29.8 - - - - S 13 15 7 8 1009.8 1009.7 -
29/06:30am 29.5 - - - - S 11 15 6 8 1009.6 1009.5 -
29/06:17am 29.2 - - - - S 11 - 6 - - 1009.4 -
29/06:00am 28.9 - - - - S 11 15 6 8 1009.2 1009.1 -
29/05:30am 28.9 - - - - SSE 13 15 7 8 1008.8 1008.7 -
29/05:17am 28.9 - - - - S 11 - 6 - - 1008.5 -
29/05:00am 28.6 - - - - S 11 13 6 7 1008.5 1008.4 -
29/04:30am 28.7 - - - - S 13 15 7 8 1008.1 1008.0 -
29/04:17am 28.3 - - - - S 13 - 7 - - 1007.8 -
29/04:00am 28.9 - - - - S 11 15 6 8 1008.0 1007.9 -
29/03:30am 28.8 - - - - S 9 11 5 6 1007.9 1007.8 -
29/03:17am 28.6 - - - - S 11 - 6 - - 1007.7 -
29/03:00am 28.8 - - - - SSW 11 13 6 7 1007.8 1007.7 -
29/02:30am 28.6 - - - - SSW 9 11 5 6 1007.5 1007.4 -
29/02:17am 28.7 - - - - W 9 - 5 - - 1007.3 -
29/02:00am 28.9 - - - - WSW 9 11 5 6 1007.4 1007.3 -
29/01:30am 28.7 - - - - WSW 11 13 6 7 1007.3 1007.2 -
29/01:17am 29.2 - - - - WNW 9 - 5 - - 1007.2 -
29/01:00am 29.1 - - - - NW 9 11 5 6 1007.5 1007.4 -
29/12:30am 29.1 - - - - CALM 0 0 0 0 1007.9 1007.8 -
29/12:17am 29.1 - - - - CALM 0 - 0 - - 1007.9 -
29/12:00am 29.1 - - - - CALM 0 0 0 0 1008.2 1008.1 -
 
Date/Time
WST
Temp
°C
App
Temp
°C
Dew
Point
°C
Rel
Hum
%
Delta-T
°C
Wind Press
QNH
hPa
Press
MSL
hPa
Rain since
9am
mm
Dir  Spd
km/h
Gust
km/h
Spd
kts
Gust
kts
28/11:30pm 29.2 - - - - CALM 0 6 0 3 1008.5 1008.4 -
28/11:17pm 29.2 - - - - NNE 6 - 3 - - 1008.7 -
28/11:00pm 29.4 - - - - NE 7 9 4 5 1008.9 1008.8 -
28/10:30pm 29.4 - - - - ENE 6 9 3 5 1008.9 1008.8 -
28/10:17pm 29.1 - - - - ENE 9 - 5 - - 1008.7 -
28/10:00pm 29.4 - - - - ENE 9 13 5 7 1009.0 1008.9 -
28/09:30pm 29.6 - - - - NE 9 11 5 6 1008.8 1008.7 -
28/09:17pm 29.6 - - - - NNE 9 - 5 - - 1008.7 -
28/09:00pm 29.6 - - - - NNE 9 11 5 6 1008.7 1008.6 -
28/08:30pm 29.6 - - - - ENE 9 13 5 7 1008.8 1008.7 -
28/08:17pm 29.5 - - - - CALM 0 - 0 - - 1008.6 -
28/08:00pm 29.5 - - - - CALM 0 0 0 0 1008.5 1008.4 -
28/07:30pm 29.7 - - - - CALM 0 0 0 0 1008.2 1008.1 -
28/07:17pm 29.7 - - - - SE 2 - 1 - - 1008.0 -
28/07:00pm 29.7 - - - - S 7 9 4 5 1007.9 1007.8 -
28/06:30pm 29.9 - - - - S 7 11 4 6 1007.7 1007.6 -
28/06:17pm 29.9 - - - - SSE 7 - 4 - - 1007.5 -
28/06:00pm 30.0 - - - - SE 9 13 5 7 1007.5 1007.4 -
28/05:30pm 30.3 - - - - SE 9 13 5 7 1007.3 1007.2 -
28/05:17pm 30.6 - - - - SE 11 - 6 - - 1007.2 -
28/05:00pm 30.5 - - - - SSE 15 19 8 10 1007.6 1007.5 -
28/04:30pm 31.1 - - - - SSW 17 20 9 11 1007.2 1007.1 -
28/04:17pm 30.7 - - - - S 15 - 8 - - 1007.0 -
28/04:00pm 30.8 - - - - SSW 17 20 9 11 1007.3 1007.2 -
28/03:30pm 30.7 - - - - SSW 19 26 10 14 1007.3 1007.2 -
28/03:17pm 31.0 - - - - SW 17 - 9 - - 1007.1 -
28/03:00pm 31.5 - - - - SW 17 26 9 14 1007.5 1007.4 -
28/02:30pm 31.4 - - - - S 17 26 9 14 1007.7 1007.6 -
28/02:17pm 31.4 - - - - S 19 - 10 - - 1007.9 -
28/02:00pm 31.4 - - - - SSW 17 26 9 14 1008.2 1008.1 -
28/01:30pm 32.2 - - - - SW 11 17 6 9 1008.5 1008.4 -
28/01:17pm 30.7 - - - - WSW 9 - 5 - - 1008.4 -
28/01:00pm 31.9 - - - - NNW 9 17 5 9 1008.5 1008.4 -
28/12:30pm 31.7 - - - - NNW 7 30 4 16 1008.7 1008.6 -
28/12:17pm 31.8 - - - - NNE 7 - 4 - - 1008.7 -
28/12:00pm 31.3 - - - - NNE 11 15 6 8 1008.8 1008.7 -
28/11:30am 31.2 - - - - NNE 9 13 5 7 1009.3 1009.2 -
28/11:17am 31.4 - - - - NNE 11 - 6 - - 1009.5 -
28/11:00am 31.4 - - - - NE 9 15 5 8 1009.8 1009.7 -
28/10:30am 32.0 - - - - NE 9 17 5 9 1010.2 1010.1 -
28/10:17am 31.0 - - - - NE 11 - 6 - - 1010.2 -
28/10:00am 31.3 - - - - ENE 11 17 6 9 1010.3 1010.2 -
28/09:30am 31.0 - - - - ENE 13 17 7 9 1010.5 1010.4 -
28/09:17am 31.6 - - - - E 13 - 7 - - 1010.5 -
28/09:00am 31.9 - - - - ESE 13 17 7 9 1010.6 1010.5 -
28/08:30am 31.0 - - - - ESE 15 19 8 10 1010.6 1010.5 -
28/08:17am 30.5 - - - - ESE 15 - 8 - - 1010.5 -
28/08:00am 30.3 - - - - ESE 13 17 7 9 1010.4 1010.3 -
28/07:30am 30.4 - - - - SSE 7 11 4 6 1010.3 1010.2 -
28/07:17am 30.4 - - - - SSW 9 - 5 - - 1010.0 -
28/07:00am 30.2 - - - - ENE 7 9 4 5 1010.0 1009.9 -
28/06:30am 30.1 - - - - ESE 7 9 4 5 1009.9 1009.8 -
28/06:17am 29.8 - - - - ENE 4 - 2 - - 1009.6 -
28/06:00am 29.6 - - - - CALM 0 0 0 0 1009.4 1009.3 -
28/05:30am 29.2 - - - - NNE 2 7 1 4 1009.0 1008.9 -
28/05:17am 29.3 - - - - NNE 6 - 3 - - 1008.7 -
28/05:00am 29.4 - - - - NNE 7 9 4 5 1008.4 1008.3 -
28/04:30am 29.5 - - - - NE 11 13 6 7 1008.0 1007.9 -
28/04:17am 29.3 - - - - NE 13 - 7 - - 1007.6 -
28/04:00am 29.4 - - - - NNE 13 15 7 8 1007.6 1007.5 -
28/03:30am 29.3 - - - - NNE 13 17 7 9 1007.4 1007.3 -
28/03:17am 29.5 - - - - NNE 13 - 7 - - 1007.2 -
28/03:00am 29.4 - - - - NE 15 19 8 10 1007.5 1007.4 -
28/02:30am 29.0 - - - - NE 17 20 9 11 1007.6 1007.5 -
28/02:17am 29.1 - - - - NE 19 - 10 - - 1007.6 -
28/02:00am 28.8 - - - - NE 22 28 12 15 1007.8 1007.7 -
28/01:30am 28.8 - - - - NE 28 35 15 19 1007.8 1007.7 -
28/01:17am 29.1 - - - - NNE 30 - 16 - - 1007.8 -
28/01:00am 29.3 - - - - NNE 24 30 13 16 1007.8 1007.7 -
28/12:30am 29.8 - - - - N 24 28 13 15 1007.7 1007.6 -
28/12:17am 30.1 - - - - N 26 - 14 - - 1007.7 -
28/12:00am 30.2 - - - - N 28 32 15 17 1008.1 1008.0 -
 
Date/Time
WST
Temp
°C
App
Temp
°C
Dew
Point
°C
Rel
Hum
%
Delta-T
°C
Wind Press
QNH
hPa
Press
MSL
hPa
Rain since
9am
mm
Dir  Spd
km/h
Gust
km/h
Spd
kts
Gust
kts
27/11:30pm 30.1 - - - - N 24 28 13 15 1008.4 1008.3 -
27/11:17pm 30.0 - - - - N 22 - 12 - - 1008.3 -
27/11:00pm 30.0 - - - - N 19 20 10 11 1008.9 1008.8 -
27/10:30pm 29.9 - - - - N 19 22 10 12 1008.9 1008.8 -
27/10:17pm 29.9 - - - - N 19 - 10 - - 1008.9 -
27/10:00pm 29.9 - - - - N 17 20 9 11 1009.1 1009.0 -
27/09:30pm 30.1 - - - - N 17 22 9 12 1009.0 1008.9 -
27/09:17pm 30.0 - - - - N 15 - 8 - - 1008.8 -
27/09:00pm 30.0 - - - - N 9 13 5 7 1008.9 1008.8 -
27/08:30pm 30.1 - - - - NNW 11 15 6 8 1008.7 1008.6 -
27/08:17pm 30.0 - - - - N 9 - 5 - - 1008.6 -
27/08:00pm 29.7 - - - - NNE 7 11 4 6 1008.7 1008.6 -
27/07:30pm 29.9 - - - - N 11 15 6 8 1008.4 1008.3 -
27/07:17pm 29.8 - - - - N 9 - 5 - - 1008.2 -
27/07:00pm 29.7 - - - - NNE 11 13 6 7 1008.0 1007.9 -
27/06:30pm 30.0 - - - - N 11 13 6 7 1007.5 1007.4 -
27/06:17pm 30.0 - - - - N 9 - 5 - - 1007.1 -
27/06:00pm 30.1 - - - - N 7 9 4 5 1007.0 1006.9 -
27/05:30pm 30.1 - - - - N 7 9 4 5 1006.8 1006.7 -
27/05:17pm 30.3 - - - - N 7 - 4 - - 1006.5 -
27/05:00pm 30.3 - - - - N 7 11 4 6 1006.7 1006.6 -
27/04:30pm 30.7 - - - - NE 9 11 5 6 1006.4 1006.3 -
27/04:17pm 30.6 - - - - NNE 7 - 4 - - 1006.2 -
27/04:00pm 30.7 - - - - NE 4 9 2 5 1006.1 1006.0 -
27/03:30pm 32.1 - - - - WSW 9 15 5 8 1006.0 1005.9 -
27/03:17pm 31.8 - - - - W 6 - 3 - - 1006.0 -
27/03:00pm 31.9 - - - - W 7 11 4 6 1006.1 1006.0 -
27/02:30pm 30.6 - - - - NE 7 11 4 6 1006.1 1006.0 -
27/02:17pm 30.7 - - - - ENE 9 - 5 - - 1006.1 -
27/02:00pm 30.9 - - - - ENE 13 17 7 9 1006.4 1006.3 -
27/01:30pm 30.9 - - - - ENE 15 19 8 10 1006.8 1006.7 -
27/01:17pm 31.4 - - - - ENE 15 - 8 - - 1006.7 -
27/01:00pm 30.9 - - - - NE 13 19 7 10 1007.0 1006.9 -
27/12:30pm 30.9 - - - - NE 13 17 7 9 1007.3 1007.2 -
27/12:17pm 32.0 - - - - NE 13 - 7 - - 1007.4 -
27/12:00pm 30.9 - - - - NE 9 15 5 8 1007.7 1007.6 -
27/11:30am 30.9 - - - - N 11 15 6 8 1007.9 1007.8 -
27/11:17am 30.8 - - - - N 11 - 6 - - 1008.0 -
27/11:00am 30.7 - - - - N 13 15 7 8 1008.3 1008.2 -
27/10:30am 31.2 - - - - N 11 15 6 8 1008.5 1008.4 -
27/10:17am 31.6 - - - - N 11 - 6 - - 1008.6 -
27/10:00am 31.2 - - - - WNW 11 15 6 8 1008.7 1008.6 -
27/09:30am 30.0 - - - - WNW 15 20 8 11 1008.9 1008.8 -
27/09:17am 29.9 - - - - WNW 15 - 8 - - 1008.8 -
27/09:00am 30.3 - - - - W 13 22 7 12 1009.1 1009.0 -
27/08:30am 30.4 - - - - W 9 13 5 7 1009.2 1009.1 -
27/08:17am 30.0 - - - - N 7 - 4 - - 1009.1 -
27/08:00am 29.6 - - - - SE 9 15 5 8 1009.2 1009.1 -
27/07:30am 29.6 - - - - S 11 15 6 8 1009.2 1009.1 -
27/07:17am 29.6 - - - - ENE 7 - 4 - - 1009.1 -
27/07:00am 29.5 - - - - S 9 13 5 7 1009.1 1009.0 -
27/06:30am 29.1 - - - - ESE 9 11 5 6 1008.7 1008.6 -
27/06:17am 29.1 - - - - NNE 6 - 3 - - 1008.5 -
27/06:00am 28.7 - - - - NE 7 9 4 5 1008.6 1008.5 -
27/05:30am 28.2 - - - - E 9 11 5 6 1008.3 1008.2 -
27/05:17am 28.1 - - - - SE 11 - 6 - - 1007.8 -
27/05:00am 28.5 - - - - SSW 15 17 8 9 1007.3 1007.2 -
27/04:30am 28.5 - - - - SE 9 11 5 6 1007.6 1007.5 -
27/04:17am 28.5 - - - - E 9 - 5 - - 1007.4 -
27/04:00am 29.0 - - - - WNW 9 13 5 7 1007.2 1007.1 -
27/03:30am 29.3 - - - - WNW 13 15 7 8 1007.1 1007.0 -
27/03:17am 29.3 - - - - WNW 11 - 6 - - 1007.0 -
27/03:00am 29.3 - - - - NW 11 13 6 7 1007.2 1007.1 -
27/02:30am 29.5 - - - - NW 11 13 6 7 1007.4 1007.3 -
27/02:17am 29.3 - - - - NW 11 - 6 - - 1007.5 -
27/02:00am 29.3 - - - - WNW 11 13 6 7 1007.5 1007.4 -
27/01:30am 29.4 - - - - NW 11 15 6 8 1007.6 1007.5 -
27/01:17am 29.6 - - - - NNW 11 - 6 - - 1007.5 -
27/01:00am 29.8 - - - - NNW 15 19 8 10 1007.8 1007.7 -
27/12:30am 29.8 - - - - NNW 15 19 8 10 1008.0 1007.9 -
27/12:17am 29.7 - - - - N 15 - 8 - - 1008.0 -
27/12:00am 29.7 - - - - NNW 17 19 9 10 1008.1 1008.0 -
 
Date/Time
WST
Temp
°C
App
Temp
°C
Dew
Point
°C
Rel
Hum
%
Delta-T
°C
Wind Press
QNH
hPa
Press
MSL
hPa
Rain since
9am
mm
Dir  Spd
km/h
Gust
km/h
Spd
kts
Gust
kts
26/11:30pm 29.7 - - - - NNW 19 22 10 12 1008.2 1008.1 -
26/11:17pm 29.7 - - - - NNW 20 - 11 - - 1008.1 -
26/11:00pm 29.8 - - - - NW 20 24 11 13 1008.2 1008.1 -
26/10:30pm 29.7 - - - - NW 19 24 10 13 1008.4 1008.3 -
26/10:17pm 29.7 - - - - NNW 19 - 10 - - 1008.3 -

Other formats

Comma delimited format used in spreadsheet applications
http://www.bom.gov.au/fwo/IDW60801/IDW60801.94210.axf

JavaScript Object Notation format (JSON) in row-major order
http://www.bom.gov.au/fwo/IDW60801/IDW60801.94210.json

Data quality

Most of these data are generated automatically and are frequently updated. Quality checks on data are not normally performed. It is possible for incorrect values to appear. Refer to information at About Latest Weather Observations and please check the disclaimer before using these data.